Time;durP1;ratioP1;P1;durP2;ratioP2;P2;SDS_P1;SDS_P2;PMS_P1;PMS_P2;Temp;Humidity;BMP_temperature;BMP_pressure;BME280_temperature;BME280_humidity;BME280_pressure;Samples;Min_cycle;Max_cycle;Signal;HPM_P1;HPM_P2
2022/08/17 00:00:09;;;;;;;4.60;4.20;;;;;;;22.60;45.69;96134.78;6214386;23;20025;-71
2022/08/17 00:03:00;;;;;;;6.40;4.25;;;;;;;22.57;45.70;96130.81;6215300;23;20034;-69
2022/08/17 00:05:31;;;;;;;5.38;3.97;;;;;;;22.57;46.37;96135.34;6212724;23;20020;-74
2022/08/17 00:08:00;;;;;;;5.22;4.38;;;;;;;22.53;46.12;96137.72;6214955;23;20489;-74
2022/08/17 00:10:28;;;;;;;4.25;3.85;;;;;;;22.53;46.26;96134.28;6215337;23;20062;-74
2022/08/17 00:12:58;;;;;;;4.07;3.78;;;;;;;22.51;46.35;96131.88;6215138;23;20013;-75
2022/08/17 00:15:26;;;;;;;5.40;4.38;;;;;;;22.51;46.38;96134.53;6215890;23;20411;-74
2022/08/17 00:17:54;;;;;;;5.07;4.57;;;;;;;22.49;46.29;96138.53;6215558;23;20445;-74
2022/08/17 00:20:21;;;;;;;7.35;4.68;;;;;;;22.45;46.44;96130.28;6215018;23;20024;-74
2022/08/17 00:23:12;;;;;;;4.65;4.25;;;;;;;22.37;46.35;96131.66;6215121;23;20498;-76
2022/08/17 00:25:40;;;;;;;4.15;3.80;;;;;;;22.33;47.13;96127.16;6213586;23;20078;-76
2022/08/17 00:28:08;;;;;;;3.83;3.45;;;;;;;22.26;45.90;96130.09;6214060;23;20075;-76
2022/08/17 00:30:36;;;;;;;4.53;3.15;;;;;;;22.19;45.97;96129.50;6214464;23;20051;-76
2022/08/17 00:33:24;;;;;;;4.22;3.90;;;;;;;22.15;46.91;96134.56;6228581;23;20048;-76
2022/08/17 00:35:53;;;;;;;3.80;3.50;;;;;;;22.09;46.18;96127.66;6225641;23;20027;-76
2022/08/17 00:38:23;;;;;;;3.58;3.28;;;;;;;22.01;46.49;96117.56;6214580;23;20032;-75
2022/08/17 00:40:54;;;;;;;5.10;3.47;;;;;;;21.93;46.75;96126.88;6214185;23;20025;-75
2022/08/17 00:43:31;;;;;;;4.93;3.50;;;;;;;21.86;46.63;96120.22;6214195;23;20087;-75
2022/08/17 00:46:01;;;;;;;4.22;3.53;;;;;;;21.83;46.79;96120.75;6217907;23;20031;-75
2022/08/17 00:48:29;;;;;;;4.13;3.47;;;;;;;21.77;46.78;96118.09;6214254;23;20024;-77
2022/08/17 00:51:03;;;;;;;3.90;3.28;;;;;;;21.75;46.68;96120.22;6213457;23;20025;-75
2022/08/17 00:53:35;;;;;;;6.40;3.83;;;;;;;21.72;46.72;96118.09;6213384;23;20344;-75
2022/08/17 00:56:08;;;;;;;3.60;3.30;;;;;;;21.68;46.96;96119.69;6212664;23;20031;-75
2022/08/17 00:58:37;;;;;;;3.80;3.40;;;;;;;21.64;46.69;96112.50;6211814;23;20020;-74
2022/08/17 01:01:07;;;;;;;5.80;3.42;;;;;;;21.61;47.19;96116.50;6210561;23;20025;-75
2022/08/17 01:03:37;;;;;;;4.43;3.40;;;;;;;21.58;47.19;96103.75;6212333;23;20020;-75
2022/08/17 01:06:07;;;;;;;3.58;2.97;;;;;;;21.57;47.05;96110.91;6170264;23;1023011;-75
2022/08/17 01:08:39;;;;;;;7.30;3.53;;;;;;;21.56;47.32;96111.97;6212332;23;20365;-75
2022/08/17 01:11:07;;;;;;;4.07;3.47;;;;;;;21.56;47.08;96105.88;6214257;23;20085;-75
2022/08/17 01:13:39;;;;;;;4.80;3.80;;;;;;;21.55;47.38;96120.19;6214339;23;20456;-75
2022/08/17 01:16:14;;;;;;;3.90;3.42;;;;;;;21.56;47.26;96111.19;6214234;23;20087;-75
2022/08/17 01:18:43;;;;;;;3.65;3.28;;;;;;;21.56;47.13;96108.53;6214793;23;20071;-75
2022/08/17 01:21:18;;;;;;;3.88;3.58;;;;;;;21.56;47.13;96105.88;6213987;23;20108;-75
2022/08/17 01:23:47;;;;;;;5.82;3.65;;;;;;;21.54;46.98;96108.78;6214256;23;20032;-75
2022/08/17 01:26:15;;;;;;;4.07;3.63;;;;;;;21.53;47.30;96104.53;6213868;23;20100;-74
2022/08/17 01:28:42;;;;;;;4.00;3.67;;;;;;;21.52;46.98;96107.47;6213829;23;20390;-74
2022/08/17 01:31:23;;;;;;;5.32;3.75;;;;;;;21.51;47.10;96106.66;6213851;23;20099;-75
2022/08/17 01:33:51;;;;;;;5.45;3.47;;;;;;;21.50;47.15;96105.06;6213739;23;20052;-74
2022/08/17 01:36:19;;;;;;;4.38;3.42;;;;;;;21.50;47.23;96098.97;6214215;23;20075;-75
2022/08/17 01:38:48;;;;;;;5.60;3.60;;;;;;;21.49;47.04;96094.72;6213803;23;20032;-75
2022/08/17 01:41:16;;;;;;;4.00;3.65;;;;;;;21.48;47.31;96106.41;6213515;23;20543;-75
2022/08/17 01:43:47;;;;;;;7.13;3.53;;;;;;;21.46;47.04;96105.88;6214337;23;20021;-75
2022/08/17 01:46:18;;;;;;;6.47;3.45;;;;;;;21.47;47.10;96102.13;6213892;23;20503;-75
2022/08/17 01:48:47;;;;;;;4.50;3.10;;;;;;;21.48;47.13;96101.09;6214377;23;20024;-75
2022/08/17 01:51:15;;;;;;;4.60;3.75;;;;;;;21.51;47.14;96097.91;6213754;23;20096;-75
2022/08/17 01:53:47;;;;;;;5.20;3.22;;;;;;;21.52;46.92;96088.91;6214160;23;20044;-75
2022/08/17 01:56:19;;;;;;;5.00;3.40;;;;;;;21.53;46.92;96090.47;6216296;23;20104;-75
2022/08/17 01:58:47;;;;;;;3.28;2.97;;;;;;;21.53;47.05;96093.13;6216171;23;20103;-75
2022/08/17 02:01:16;;;;;;;3.47;3.00;;;;;;;21.55;46.87;96096.31;6215775;23;20024;-75
2022/08/17 02:03:45;;;;;;;3.70;3.40;;;;;;;21.55;46.83;96099.75;6216100;23;20087;-75
2022/08/17 02:06:29;;;;;;;4.20;3.10;;;;;;;21.53;46.81;96093.13;6216005;23;20024;-75
2022/08/17 02:08:58;;;;;;;3.33;3.03;;;;;;;21.53;46.82;96090.47;6215924;23;20028;-74
2022/08/17 02:11:32;;;;;;;;;;;;;;;21.54;46.40;96092.88;6216197;23;20099;-75
2022/08/17 02:14:01;;;;;;;5.10;2.97;;;;;;;21.53;46.58;96085.16;6215797;23;19916;-75
2022/08/17 02:16:31;;;;;;;5.45;3.90;;;;;;;21.53;46.55;96080.66;6216605;23;20031;-75
2022/08/17 02:19:07;;;;;;;4.53;3.13;;;;;;;21.55;46.53;96089.16;6215810;23;20055;-75
2022/08/17 02:21:35;;;;;;;6.38;3.78;;;;;;;21.56;46.57;96084.66;6215042;23;20024;-75
2022/08/17 02:24:04;;;;;;;8.63;3.47;;;;;;;21.58;46.52;96085.16;6215714;23;20020;-75
2022/08/17 02:26:33;;;;;;;4.32;3.55;;;;;;;21.58;46.58;96088.63;6216202;23;20096;-74
2022/08/17 02:29:02;;;;;;;5.50;3.35;;;;;;;21.56;46.47;96077.47;6215731;23;20094;-74
2022/08/17 02:31:30;;;;;;;3.60;3.30;;;;;;;21.56;46.67;96082.00;6215452;23;20021;-75
2022/08/17 02:33:58;;;;;;;4.90;3.58;;;;;;;21.55;46.66;96091.00;6215432;23;20172;-75
2022/08/17 02:36:32;;;;;;;3.30;2.83;;;;;;;21.55;46.42;96088.34;6215959;23;20054;-75
2022/08/17 02:39:00;;;;;;;3.92;3.30;;;;;;;21.53;46.57;96085.16;6215819;23;20035;-75
2022/08/17 02:41:28;;;;;;;4.32;3.13;;;;;;;21.51;46.78;96082.75;6215499;23;20020;-75
2022/08/17 02:43:57;;;;;;;4.90;3.30;;;;;;;21.49;46.54;96084.09;6215917;23;20352;-75
2022/08/17 02:46:25;;;;;;;3.55;3.22;;;;;;;21.49;46.48;96086.75;6215187;23;20020;-74
2022/08/17 02:48:52;;;;;;;3.45;3.15;;;;;;;21.49;46.70;96082.22;6215606;23;20055;-74
2022/08/17 02:51:20;;;;;;;6.75;3.08;;;;;;;21.48;46.40;96082.50;6215190;23;20099;-74
2022/08/17 02:53:47;;;;;;;3.13;2.92;;;;;;;21.49;46.33;96073.47;6215589;23;20016;-75
2022/08/17 02:56:15;;;;;;;4.72;3.30;;;;;;;21.45;46.37;96072.41;6215546;23;20062;-75
2022/08/17 02:58:43;;;;;;;4.85;3.35;;;;;;;21.42;46.60;96070.28;6215195;23;20047;-75
2022/08/17 03:01:12;;;;;;;3.30;2.85;;;;;;;21.37;46.53;96071.84;6215130;23;20036;-74
2022/08/17 03:03:40;;;;;;;3.83;2.80;;;;;;;21.37;46.39;96077.16;6215208;23;20024;-75
2022/08/17 03:06:08;;;;;;;3.30;3.03;;;;;;;21.39;46.55;96080.34;6214710;23;20056;-74
2022/08/17 03:08:37;;;;;;;3.38;3.03;;;;;;;21.39;46.34;96080.34;6215048;23;20571;-75
2022/08/17 03:11:04;;;;;;;3.65;2.83;;;;;;;21.38;46.44;96086.72;6214978;23;20067;-75
2022/08/17 03:13:32;;;;;;;6.20;2.95;;;;;;;21.38;46.39;96077.94;6215380;23;20017;-75
2022/08/17 03:16:00;;;;;;;3.90;3.50;;;;;;;21.39;46.26;96080.34;6215335;23;20028;-74
2022/08/17 03:18:29;;;;;;;4.05;3.40;;;;;;;21.40;46.37;96092.53;6215535;23;20024;-74
2022/08/17 03:20:59;;;;;;;3.40;3.10;;;;;;;21.44;46.47;96100.03;6215300;23;20099;-74
2022/08/17 03:23:28;;;;;;;3.33;3.00;;;;;;;21.46;46.48;96092.59;6215883;23;20032;-75
2022/08/17 03:25:57;;;;;;;3.10;2.90;;;;;;;21.50;46.71;96085.69;6216668;23;20025;-75
2022/08/17 03:28:27;;;;;;;6.13;4.82;;;;;;;21.55;46.87;96094.44;6215669;23;20024;-75
2022/08/17 03:30:54;;;;;;;6.13;4.68;;;;;;;21.59;47.31;96100.03;6215176;23;20099;-74
2022/08/17 03:33:22;;;;;;;7.25;5.55;;;;;;;21.60;47.26;96102.44;6215232;23;20095;-74
2022/08/17 03:35:51;;;;;;;8.68;5.43;;;;;;;21.58;47.44;96103.75;6215098;23;20104;-75
2022/08/17 03:38:19;;;;;;;7.82;6.30;;;;;;;21.55;47.42;96098.97;6220474;23;20103;-74
2022/08/17 03:40:48;;;;;;;6.72;5.25;;;;;;;21.53;47.52;96106.41;6226902;23;20024;-74
2022/08/17 03:43:28;;;;;;;6.40;4.97;;;;;;;21.51;47.46;96104.00;6224395;23;20636;-75
2022/08/17 03:57:31;;;;;;;7.13;5.72;;;;;;;21.37;48.17;96100.25;6205159;23;20020;-75
2022/08/17 03:59:58;;;;;;;6.55;5.75;;;;;;;21.36;48.88;96098.63;6214782;23;20066;-74
2022/08/17 04:02:29;;;;;;;5.70;5.10;;;;;;;21.35;48.52;96100.50;6214826;23;20465;-75
2022/08/17 04:04:57;;;;;;;6.32;5.55;;;;;;;21.35;48.50;96099.72;6214695;23;20099;-75
2022/08/17 04:07:28;;;;;;;6.50;5.90;;;;;;;21.33;48.67;96101.81;6215054;23;20032;-75
2022/08/17 04:09:58;;;;;;;6.55;5.93;;;;;;;21.31;48.53;96099.41;6214969;23;20417;-75
2022/08/17 04:12:29;;;;;;;10.48;6.75;;;;;;;21.27;48.59;96101.00;6214861;23;20103;-74
2022/08/17 04:14:57;;;;;;;10.55;6.55;;;;;;;21.20;48.70;96103.13;6214265;23;20021;-75
2022/08/17 04:17:27;;;;;;;8.60;6.90;;;;;;;21.13;49.00;96110.53;6214503;23;20095;-75
2022/08/17 04:19:55;;;;;;;7.63;6.80;;;;;;;21.08;49.30;96113.97;6214009;23;20056;-75
2022/08/17 04:22:24;;;;;;;8.88;6.30;;;;;;;21.09;49.17;96123.50;6214590;23;20060;-74
2022/08/17 04:25:02;;;;;;;6.97;6.22;;;;;;;21.10;49.44;96124.28;6214749;23;20071;-75
2022/08/17 04:27:30;;;;;;;8.07;6.82;;;;;;;21.11;48.93;96110.00;6214804;23;20099;-74
2022/08/17 04:29:58;;;;;;;9.00;6.30;;;;;;;21.11;49.27;96110.00;6214941;23;20078;-75
2022/08/17 04:32:25;;;;;;;7.03;5.93;;;;;;;21.11;48.93;96107.34;6214690;23;20107;-74
2022/08/17 04:35:18;;;;;;;7.15;5.80;;;;;;;21.09;49.41;96112.91;6214340;23;20017;-75
2022/08/17 04:37:46;;;;;;;6.80;6.10;;;;;;;21.10;49.38;96121.63;6214454;23;20044;-74
2022/08/17 04:43:02;;;;;;;8.93;6.80;;;;;;;21.09;49.26;96122.72;6214225;23;20531;-75
2022/08/17 04:45:30;;;;;;;9.00;7.10;;;;;;;21.08;49.53;96121.09;6214437;23;20412;-75
2022/08/17 04:47:59;;;;;;;9.13;6.13;;;;;;;21.06;49.56;96123.25;6214537;23;20074;-74
2022/08/17 04:50:27;;;;;;;9.15;7.03;;;;;;;21.05;49.58;96122.41;6214248;23;20460;-75
2022/08/17 04:52:54;;;;;;;8.40;6.40;;;;;;;21.04;49.81;96128.00;6214322;23;20031;-75
2022/08/17 04:55:23;;;;;;;8.13;6.00;;;;;;;21.05;49.82;96126.94;6213791;23;20016;-76
2022/08/17 04:57:51;;;;;;;10.15;7.28;;;;;;;21.04;49.56;96133.31;6214478;23;20025;-76
2022/08/17 05:00:19;;;;;;;13.57;8.35;;;;;;;21.02;49.86;96138.06;6213396;23;20117;-74
2022/08/17 05:02:47;;;;;;;10.45;7.43;;;;;;;21.02;49.92;96135.41;6214280;23;20079;-75
2022/08/17 05:05:19;;;;;;;12.25;6.88;;;;;;;21.00;50.03;96140.97;6214134;23;20338;-75
2022/08/17 05:07:47;;;;;;;11.32;7.63;;;;;;;20.98;50.07;96133.28;6213188;23;20067;-72
2022/08/17 05:10:15;;;;;;;9.60;7.05;;;;;;;20.97;50.08;96134.34;6214099;23;20025;-73
2022/08/17 05:12:44;;;;;;;11.73;6.90;;;;;;;20.95;50.16;96136.44;6214495;23;20108;-72
2022/08/17 05:15:14;;;;;;;11.50;6.78;;;;;;;20.94;50.25;96137.50;6214407;23;20016;-72
2022/08/17 05:17:42;;;;;;;9.38;6.60;;;;;;;20.93;50.35;96130.59;6215100;23;20032;-72
2022/08/17 05:20:10;;;;;;;12.98;6.82;;;;;;;20.92;50.44;96134.31;6214933;23;20385;-73
2022/08/17 05:22:48;;;;;;;8.25;6.00;;;;;;;20.84;50.32;96124.22;6214942;23;20031;-72
2022/08/17 05:25:19;;;;;;;10.10;6.03;;;;;;;20.81;50.54;96132.66;6215092;23;20031;-72
2022/08/17 05:27:54;;;;;;;8.90;5.25;;;;;;;20.76;50.31;96130.00;6214686;23;20530;-72
2022/08/17 05:30:23;;;;;;;7.30;5.00;;;;;;;20.72;50.35;96134.22;6215959;23;20060;-72
2022/08/17 05:32:52;;;;;;;5.25;4.75;;;;;;;20.70;50.53;96137.13;6216308;23;20087;-72
2022/08/17 05:35:21;;;;;;;4.80;4.40;;;;;;;20.72;50.93;96134.22;6216383;23;20424;-72
2022/08/17 05:37:49;;;;;;;7.30;5.65;;;;;;;20.74;50.84;96140.06;6217045;23;20063;-72
2022/08/17 05:40:18;;;;;;;9.30;5.53;;;;;;;20.77;51.10;96145.66;6213905;23;20096;-72
2022/08/17 05:42:46;;;;;;;9.75;6.25;;;;;;;20.82;51.16;96146.75;6215580;23;20013;-74
2022/08/17 05:45:18;;;;;;;8.73;6.03;;;;;;;20.86;51.01;96145.16;6214862;23;20075;-74
2022/08/17 05:48:07;;;;;;;6.30;5.57;;;;;;;20.89;51.25;96150.72;6215536;23;20434;-75
2022/08/17 05:50:44;;;;;;;7.90;6.15;;;;;;;20.92;51.24;96147.56;6215313;23;20066;-75
2022/08/17 05:53:19;;;;;;;7.35;5.68;;;;;;;20.97;51.26;96147.59;6216151;23;20078;-75
2022/08/17 05:55:56;;;;;;;7.70;6.72;;;;;;;20.99;50.79;96158.75;6215097;23;20016;-76
2022/08/17 05:58:40;;;;;;;7.60;5.85;;;;;;;21.03;50.93;96161.66;6215652;23;20024;-75
2022/08/17 06:01:24;;;;;;;5.70;5.22;;;;;;;21.06;50.75;96170.97;6215250;23;20060;-74
2022/08/17 06:04:00;;;;;;;6.10;5.47;;;;;;;21.09;50.54;96176.53;6215270;23;20480;-75
2022/08/17 06:06:38;;;;;;;7.28;5.28;;;;;;;21.12;50.56;96185.81;6211929;23;20419;-69
2022/08/17 06:09:17;;;;;;;9.52;5.32;;;;;;;21.15;50.65;96183.47;6215523;23;20095;-69
2022/08/17 06:11:56;;;;;;;8.73;4.82;;;;;;;21.21;50.35;96179.00;6215369;23;20016;-69
2022/08/17 06:14:35;;;;;;;4.32;3.85;;;;;;;21.29;50.03;96191.72;6227438;23;20044;-69
2022/08/17 06:17:07;;;;;;;6.70;4.72;;;;;;;21.37;50.10;96188.59;6240196;23;20012;-70
2022/08/17 06:19:40;;;;;;;5.18;4.03;;;;;;;21.45;49.97;96199.78;6224706;23;20024;-69
2022/08/17 06:22:09;;;;;;;6.43;4.00;;;;;;;21.51;49.83;96196.09;6220247;23;20095;-69
2022/08/17 06:24:42;;;;;;;9.00;4.93;;;;;;;21.58;49.72;96205.41;6216511;23;20024;-68
2022/08/17 06:27:16;;;;;;;5.38;4.45;;;;;;;21.67;49.57;96207.53;6215488;23;20444;-70
2022/08/17 06:29:52;;;;;;;6.80;4.50;;;;;;;21.75;49.35;96204.38;6214864;23;20408;-70
2022/08/17 06:32:21;;;;;;;5.22;4.30;;;;;;;21.80;48.65;96191.13;6215514;23;20055;-71
2022/08/17 06:34:49;;;;;;;4.97;4.15;;;;;;;21.86;48.71;96194.56;6214803;23;20050;-69
2022/08/17 06:37:47;;;;;;;8.93;4.28;;;;;;;21.92;48.50;96204.94;6215537;23;20092;-69
2022/08/17 06:40:29;;;;;;;5.43;4.30;;;;;;;22.00;48.64;96212.38;6191893;23;20079;-69
2022/08/17 06:43:14;;;;;;;4.93;4.10;;;;;;;22.09;48.02;96223.28;6215208;23;20056;-69
2022/08/17 06:45:47;;;;;;;6.75;4.38;;;;;;;22.17;47.81;96222.78;6214751;23;20059;-68
2022/08/17 06:48:24;;;;;;;5.50;3.60;;;;;;;22.26;47.78;96231.03;6217858;23;20052;-69
2022/08/17 06:50:58;;;;;;;6.00;4.13;;;;;;;22.32;47.22;96235.25;6216247;23;20062;-69
2022/08/17 06:53:31;;;;;;;4.43;3.65;;;;;;;22.41;47.01;96231.03;6218045;23;20020;-68
2022/08/17 06:56:04;;;;;;;4.95;4.05;;;;;;;22.51;47.33;96240.84;6220750;23;20017;-69
2022/08/17 06:58:34;;;;;;;4.78;3.60;;;;;;;22.60;47.03;96247.22;6219975;23;20035;-70
2022/08/17 07:01:09;;;;;;;6.90;4.35;;;;;;;22.71;47.15;96245.34;6217567;23;20028;-69
2022/08/17 07:03:48;;;;;;;5.93;3.92;;;;;;;22.81;46.20;96252.53;6216856;23;20531;-70
2022/08/17 07:06:19;;;;;;;4.45;3.70;;;;;;;22.91;46.31;96241.88;6216677;23;20021;-69
2022/08/17 07:08:54;;;;;;;5.38;3.53;;;;;;;23.01;46.10;96246.41;6216300;23;20020;-71
2022/08/17 07:11:27;;;;;;;7.25;4.28;;;;;;;23.12;45.36;96247.97;6215761;23;20034;-71
2022/08/17 07:13:59;;;;;;;;;;;;;;;23.22;45.71;96252.47;6218667;23;20056;-71
2022/08/17 07:16:32;;;;;;;5.10;3.33;;;;;;;23.31;45.64;96250.84;6217300;23;19974;-71
2022/08/17 07:19:01;;;;;;;6.63;3.17;;;;;;;23.42;45.19;96238.31;6217189;23;20025;-70
2022/08/17 07:21:40;;;;;;;5.28;3.85;;;;;;;23.52;44.87;96229.47;6217047;23;20032;-70
2022/08/17 07:24:25;;;;;;;4.45;3.67;;;;;;;23.66;44.90;96227.81;6216535;23;20017;-69
2022/08/17 07:27:10;;;;;;;7.22;4.30;;;;;;;23.81;44.53;96232.28;6214802;23;20023;-70
2022/08/17 07:29:41;;;;;;;3.50;3.20;;;;;;;23.92;44.37;96225.84;6214893;23;20058;-72
2022/08/17 07:32:10;;;;;;;6.57;3.50;;;;;;;24.04;44.07;96217.50;6214798;23;20052;-70
2022/08/17 07:35:11;;;;;;;6.10;3.20;;;;;;;24.16;43.94;96217.94;6214791;23;20055;-70
2022/08/17 07:37:44;;;;;;;4.43;3.05;;;;;;;24.31;43.63;96210.88;6214326;23;20024;-70
2022/08/17 07:40:32;;;;;;;6.53;3.70;;;;;;;24.44;43.29;96212.91;6213534;23;20044;-71
2022/08/17 07:43:19;;;;;;;5.05;3.63;;;;;;;24.58;42.92;96208.56;6214618;23;20064;-70
2022/08/17 07:48:50;;;;;;;4.63;3.05;;;;;;;24.81;42.07;96207.00;6214152;23;20060;-70
2022/08/17 07:51:24;;;;;;;4.28;3.17;;;;;;;24.91;42.28;96219.44;6214235;23;20063;-70
2022/08/17 07:53:53;;;;;;;3.53;2.80;;;;;;;25.03;41.80;96229.72;6214550;23;20066;-71
2022/08/17 07:56:40;;;;;;;5.10;2.83;;;;;;;25.15;41.90;96232.00;6214365;23;20024;-70
2022/08/17 07:59:10;;;;;;;5.35;3.70;;;;;;;25.24;41.21;96225.78;6214337;23;20024;-71
2022/08/17 08:01:39;;;;;;;4.15;3.03;;;;;;;25.37;41.26;96223.50;6214159;23;20031;-70
2022/08/17 08:04:27;;;;;;;4.53;2.85;;;;;;;25.46;41.12;96227.13;6214990;23;20025;-70
2022/08/17 08:07:30;;;;;;;4.97;3.30;;;;;;;25.58;40.67;96234.72;6213853;23;20023;-70
2022/08/17 08:10:09;;;;;;;3.88;3.10;;;;;;;25.67;40.80;96222.31;6213911;23;20461;-72
2022/08/17 08:12:40;;;;;;;4.45;3.20;;;;;;;25.77;40.13;96226.72;6214432;23;20099;-76
2022/08/17 08:15:16;;;;;;;4.72;3.08;;;;;;;25.87;39.48;96231.94;6213521;23;20020;-77
2022/08/17 08:17:53;;;;;;;3.63;3.00;;;;;;;25.96;39.54;96229.44;6214007;23;20381;-76
2022/08/17 08:20:26;;;;;;;4.90;2.90;;;;;;;26.04;38.93;96237.59;6214179;23;20020;-76
2022/08/17 08:23:28;;;;;;;4.32;2.90;;;;;;;26.16;39.35;96218.44;6214226;23;20027;-77
2022/08/17 08:26:09;;;;;;;4.13;2.83;;;;;;;26.28;39.07;96226.81;6230921;23;20024;-77
2022/08/17 08:28:50;;;;;;;3.47;2.40;;;;;;;26.43;38.65;96214.28;6239062;23;20025;-77
2022/08/17 08:31:30;;;;;;;2.75;2.42;;;;;;;26.56;38.04;96218.88;6223843;23;20044;-77
2022/08/17 08:34:10;;;;;;;3.83;2.88;;;;;;;26.69;38.08;96222.69;6220863;23;20021;-76
2022/08/17 08:37:05;;;;;;;3.20;2.90;;;;;;;26.85;38.33;96223.19;6214164;23;20020;-77
2022/08/17 08:40:02;;;;;;;4.53;3.28;;;;;;;27.04;37.98;96223.13;6213699;23;20455;-77
2022/08/17 08:42:41;;;;;;;4.20;3.15;;;;;;;27.17;37.25;96226.91;6214151;23;20091;-77
2022/08/17 08:45:14;;;;;;;6.38;3.45;;;;;;;27.26;37.23;96230.50;6213685;23;20095;-77
2022/08/17 08:47:59;;;;;;;3.70;3.03;;;;;;;27.36;36.88;96226.84;6214387;23;20020;-77
2022/08/17 08:50:41;;;;;;;3.80;3.00;;;;;;;27.46;36.46;96231.97;6213374;23;20029;-77
2022/08/17 08:53:22;;;;;;;4.70;3.05;;;;;;;27.56;36.20;96231.00;6213876;23;20071;-76
2022/08/17 08:55:58;;;;;;;5.03;3.10;;;;;;;27.66;36.02;96230.75;6213895;23;20461;-77
2022/08/17 08:58:34;;;;;;;4.70;2.70;;;;;;;27.70;35.91;96237.09;6214820;23;20032;-79
2022/08/17 09:01:17;;;;;;;3.30;3.00;;;;;;;27.74;36.31;96230.06;6220512;23;20024;-76
2022/08/17 09:04:02;;;;;;;10.20;3.53;;;;;;;27.83;36.12;96220.19;6213452;23;20071;-77
2022/08/17 09:07:00;;;;;;;3.47;2.65;;;;;;;27.96;35.79;96225.88;6214032;23;20156;-76
2022/08/17 09:09:41;;;;;;;4.22;2.50;;;;;;;28.10;35.55;96235.47;6213528;23;20468;-76
2022/08/17 09:12:17;;;;;;;3.08;2.72;;;;;;;28.21;34.77;96227.19;6213915;23;20021;-76
2022/08/17 09:14:54;;;;;;;4.10;2.90;;;;;;;28.31;35.12;96214.28;6214409;23;20032;-78
2022/08/17 09:17:30;;;;;;;3.63;2.70;;;;;;;28.42;34.15;96206.78;6218633;23;20052;-77
2022/08/17 09:20:03;;;;;;;2.90;2.70;;;;;;;28.50;34.25;96210.69;6222929;23;20035;-76
2022/08/17 09:22:36;;;;;;;4.32;2.55;;;;;;;28.62;33.57;96208.19;6220089;23;20457;-76
2022/08/17 09:25:09;;;;;;;2.65;2.45;;;;;;;28.73;33.82;96212.22;6215156;23;20025;-77
2022/08/17 09:27:50;;;;;;;2.95;2.70;;;;;;;28.85;33.58;96210.88;6216460;23;20021;-78
2022/08/17 09:30:18;;;;;;;4.15;2.42;;;;;;;28.93;33.57;96210.13;6215888;23;20028;-77
2022/08/17 09:32:50;;;;;;;3.33;2.65;;;;;;;29.03;32.81;96206.34;6215030;23;20021;-77
2022/08/17 09:35:22;;;;;;;2.17;2.00;;;;;;;29.10;32.90;96202.16;6216855;23;20025;-78
2022/08/17 09:37:59;;;;;;;4.50;2.55;;;;;;;29.19;33.01;96209.44;6214473;23;20051;-77
2022/08/17 09:40:32;;;;;;;2.47;2.28;;;;;;;29.30;32.90;96216.91;6213581;23;20021;-77
2022/08/17 09:43:07;;;;;;;4.13;2.47;;;;;;;29.43;32.47;96223.28;6215163;23;20100;-77
2022/08/17 09:45:41;;;;;;;3.28;2.25;;;;;;;29.50;31.99;96228.19;6215500;23;20055;-77
2022/08/17 09:48:17;;;;;;;2.83;2.55;;;;;;;29.50;32.00;96230.88;6223138;23;20021;-77
2022/08/17 09:50:51;;;;;;;2.33;2.13;;;;;;;29.51;32.47;96221.69;6213811;23;20043;-77
2022/08/17 09:53:32;;;;;;;2.83;2.45;;;;;;;29.56;32.19;96224.22;6215807;23;20386;-78
2022/08/17 09:56:16;;;;;;;3.65;2.38;;;;;;;29.56;31.44;96224.22;6214706;23;20087;-78
2022/08/17 09:59:13;;;;;;;5.43;2.25;;;;;;;29.55;31.82;96223.44;6214594;23;20453;-76
2022/08/17 10:01:46;;;;;;;2.38;2.17;;;;;;;29.54;31.87;96231.81;6211543;23;20029;-77
2022/08/17 10:04:32;;;;;;;2.90;2.55;;;;;;;29.50;31.77;96237.03;6213645;23;20028;-76
2022/08/17 10:07:07;;;;;;;3.80;2.20;;;;;;;29.46;31.27;96240.66;6214871;23;20437;-75
2022/08/17 10:09:48;;;;;;;3.65;2.00;;;;;;;29.42;32.63;96251.22;6213795;23;20096;-76
2022/08/17 10:12:27;;;;;;;4.63;2.47;;;;;;;29.38;31.63;96236.84;6213606;23;20088;-77
2022/08/17 10:15:08;;;;;;;5.18;2.40;;;;;;;29.31;31.64;96244.56;6211759;23;20021;-77
2022/08/17 10:17:49;;;;;;;3.15;2.35;;;;;;;29.26;32.35;96233.97;6214454;23;20012;-75
2022/08/17 10:20:23;;;;;;;3.15;2.35;;;;;;;29.24;31.50;96238.84;6215134;23;20261;-75
2022/08/17 10:28:40;;;;;;;4.80;2.45;;;;;;;29.11;34.00;96235.97;6216938;23;20047;-79
2022/08/17 10:31:12;;;;;;;3.05;2.35;;;;;;;29.06;33.72;96233.38;6215378;23;20052;-77
2022/08/17 10:34:07;;;;;;;;;;;;;;;29.06;33.84;96233.38;6215490;23;20017;-77
2022/08/17 10:36:42;;;;;;;2.58;2.33;;;;;;;28.99;33.64;96234.91;6215370;23;19934;-77
2022/08/17 10:39:20;;;;;;;4.72;2.47;;;;;;;28.93;33.01;96245.03;6216065;23;20032;-77
2022/08/17 10:41:51;;;;;;;3.72;2.08;;;;;;;28.91;34.16;96241.84;6214377;23;20096;-77
2022/08/17 10:44:25;;;;;;;5.57;3.03;;;;;;;28.90;32.84;96237.56;6215597;23;20032;-77
2022/08/17 10:47:12;;;;;;;2.78;2.20;;;;;;;28.89;33.28;96244.03;6216653;23;20031;-75
2022/08/17 10:49:44;;;;;;;3.45;2.50;;;;;;;28.91;31.83;96244.53;6215241;23;20063;-77
2022/08/17 10:52:30;;;;;;;;;;;;;;;28.99;32.50;96248.34;6215303;23;20063;-77
2022/08/17 10:55:13;;;;;;;4.18;2.28;;;;;;;29.06;31.93;96254.88;6214110;23;20682;-76
2022/08/17 10:57:44;;;;;;;2.72;2.35;;;;;;;29.11;31.40;96262.03;6214995;23;20017;-76
2022/08/17 11:00:34;;;;;;;2.70;2.50;;;;;;;29.17;30.88;96250.84;6214230;23;20021;-77
2022/08/17 11:03:18;;;;;;;2.33;2.05;;;;;;;29.27;31.39;96265.88;6214709;23;20028;-76
2022/08/17 11:05:59;;;;;;;3.30;3.00;;;;;;;29.38;31.15;96266.38;6213416;23;20071;-75
2022/08/17 11:08:52;;;;;;;2.30;2.10;;;;;;;29.55;31.11;96250.31;6214507;23;20365;-76
2022/08/17 11:11:46;;;;;;;3.03;2.10;;;;;;;29.75;31.01;96259.72;6214334;23;20063;-76
2022/08/17 11:14:29;;;;;;;4.13;2.67;;;;;;;29.88;30.47;96257.22;6214589;23;20082;-76
2022/08/17 11:17:11;;;;;;;2.15;1.95;;;;;;;29.96;30.29;96259.13;6214974;23;20026;-76
2022/08/17 11:20:14;;;;;;;4.32;2.40;;;;;;;30.06;30.12;96258.78;6213884;23;20024;-76
2022/08/17 11:23:25;;;;;;;3.90;2.47;;;;;;;30.19;30.94;96257.06;6214488;23;20024;-75
2022/08/17 11:25:55;;;;;;;4.23;2.63;;;;;;;30.23;31.93;96258.00;6211414;23;20130;-75
2022/08/17 11:28:26;;;;;;;3.20;2.55;;;;;;;30.25;32.18;96255.00;6214418;23;20234;-78
2022/08/17 11:30:57;;;;;;;3.00;2.80;;;;;;;30.27;32.03;96263.56;6214078;23;20096;-78
2022/08/17 11:34:03;;;;;;;4.50;2.53;;;;;;;30.25;32.12;96249.63;6214017;23;20119;-78
2022/08/17 11:36:51;;;;;;;4.88;2.90;;;;;;;30.19;31.88;96255.16;6213726;23;20055;-77
2022/08/17 11:39:35;;;;;;;2.72;2.40;;;;;;;30.14;31.62;96254.53;6213334;23;20091;-74
2022/08/17 11:42:10;;;;;;;6.60;2.78;;;;;;;30.14;31.95;96265.31;6213634;23;20017;-75
2022/08/17 11:44:46;;;;;;;9.23;3.15;;;;;;;30.18;31.80;96266.25;6212584;23;20471;-78
2022/08/17 11:53:47;;;;;;;2.78;2.45;;;;;;;30.32;31.38;96280.34;6211981;23;20025;-76
2022/08/17 11:56:33;;;;;;;4.30;2.47;;;;;;;30.35;31.38;96281.59;6212303;23;20024;-76
2022/08/17 11:59:01;;;;;;;3.28;2.20;;;;;;;30.39;31.31;96287.94;6213838;23;20017;-76
2022/08/17 12:01:51;;;;;;;3.22;2.40;;;;;;;30.43;31.44;96288.13;6214344;23;20021;-78
2022/08/17 12:04:26;;;;;;;4.95;2.80;;;;;;;30.48;30.79;96291.44;6214311;23;20370;-77
2022/08/17 12:06:58;;;;;;;2.67;2.30;;;;;;;30.51;30.34;96298.88;6215696;23;20063;-76
2022/08/17 12:09:30;;;;;;;3.78;2.35;;;;;;;30.49;30.45;96303.78;6215982;23;20025;-78
2022/08/17 12:12:04;;;;;;;2.45;2.20;;;;;;;30.45;31.03;96300.13;6214655;23;20485;-78
2022/08/17 12:14:46;;;;;;;2.92;2.60;;;;;;;30.39;31.56;96312.97;6214725;23;20024;-76
2022/08/17 12:17:35;;;;;;;7.75;2.88;;;;;;;30.26;31.52;96315.78;6214248;23;20031;-77
2022/08/17 12:20:22;;;;;;;2.42;2.22;;;;;;;30.13;31.35;96328.25;6215364;23;20016;-78
2022/08/17 12:22:59;;;;;;;4.03;2.60;;;;;;;30.05;31.68;96327.16;6215168;23;20495;-76
2022/08/17 12:25:33;;;;;;;3.60;2.60;;;;;;;30.01;31.61;96331.56;6214186;23;20016;-79
2022/08/17 12:28:04;;;;;;;4.45;2.33;;;;;;;29.93;31.90;96335.81;6214013;23;20063;-78
2022/08/17 12:30:36;;;;;;;4.53;2.60;;;;;;;29.88;32.49;96338.66;6215928;23;20558;-78
2022/08/17 12:33:11;;;;;;;3.30;2.50;;;;;;;29.78;32.75;96344.31;6214821;23;20052;-79
2022/08/17 12:35:38;;;;;;;4.22;2.78;;;;;;;29.66;33.47;96341.41;6215765;23;20453;-76
2022/08/17 12:38:08;;;;;;;5.35;2.92;;;;;;;29.55;33.20;96344.38;6213986;23;20058;-76